Time;durP1;ratioP1;P1;durP2;ratioP2;P2;SDS_P1;SDS_P2;PMS_P1;PMS_P2;Temp;Humidity;BMP_temperature;BMP_pressure;BME280_temperature;BME280_humidity;BME280_pressure;Samples;Min_cycle;Max_cycle;Signal;HPM_P1;HPM_P2
2022/10/17 00:00:19;;;;;;;17.27;3.42;;;14.00;99.90;;;;;;4972891;28;20047;-64
2022/10/17 00:02:44;;;;;;;12.15;3.65;;;13.70;99.90;;;;;;4972372;28;20030;-64
2022/10/17 00:05:11;;;;;;;14.18;3.72;;;14.10;99.90;;;;;;4973099;28;20540;-63
2022/10/17 00:07:36;;;;;;;11.68;3.35;;;13.60;99.90;;;;;;4952154;29;20066;-63
2022/10/17 00:10:03;;;;;;;21.58;4.00;;;13.70;99.90;;;;;;4969925;28;20039;-64
2022/10/17 00:12:29;;;;;;;13.23;3.50;;;13.50;99.90;;;;;;4972472;28;20053;-64
2022/10/17 00:14:54;;;;;;;10.27;3.40;;;13.50;99.90;;;;;;4938172;28;20404;-64
2022/10/17 00:17:20;;;;;;;9.77;3.20;;;13.60;99.90;;;;;;4964929;28;20442;-64
2022/10/17 00:19:45;;;;;;;10.15;3.20;;;14.20;99.90;;;;;;4946382;29;20517;-64
2022/10/17 00:22:12;;;;;;;8.60;3.33;;;13.80;99.90;;;;;;4971633;28;20050;-64
2022/10/17 00:24:37;;;;;;;8.35;2.75;;;13.70;99.90;;;;;;4972722;28;20121;-64
2022/10/17 00:27:03;;;;;;;9.95;3.13;;;14.60;99.90;;;;;;4971587;28;20114;-64
2022/10/17 00:29:28;;;;;;;9.93;3.17;;;14.50;99.90;;;;;;4972306;28;20062;-64
2022/10/17 00:31:55;;;;;;;8.75;3.05;;;14.50;99.90;;;;;;4972692;28;20035;-64
2022/10/17 00:34:21;;;;;;;10.52;3.20;;;14.30;99.90;;;;;;4972405;28;20101;-64
2022/10/17 00:36:46;;;;;;;14.35;3.65;;;13.90;99.90;;;;;;4971036;28;20047;-64
2022/10/17 00:39:12;;;;;;;14.40;4.30;;;14.50;99.90;;;;;;4972876;28;20412;-64
2022/10/17 00:41:38;;;;;;;10.60;3.30;;;14.70;99.90;;;;;;4963274;28;20089;-64
2022/10/17 00:44:05;;;;;;;13.10;3.17;;;14.50;99.90;;;;;;4967192;28;20054;-64
2022/10/17 00:46:34;;;;;;;9.32;3.30;;;14.30;99.90;;;;;;4971248;28;20039;-64
2022/10/17 00:49:03;;;;;;;6.65;2.97;;;14.90;99.90;;;;;;4971287;28;20488;-64
2022/10/17 00:51:43;;;;;;;13.63;3.92;;;14.10;99.90;;;;;;4971796;28;20067;-64
2022/10/17 00:54:10;;;;;;;14.30;3.70;;;14.90;99.90;;;;;;4972755;28;20054;-64
2022/10/17 00:56:37;;;;;;;12.93;3.67;;;14.20;99.90;;;;;;4954309;28;20050;-64
2022/10/17 00:59:02;;;;;;;10.63;3.30;;;14.60;99.90;;;;;;4937857;28;20046;-64
2022/10/17 01:01:28;;;;;;;13.98;3.00;;;14.50;99.90;;;;;;4957232;28;20059;-63
2022/10/17 01:03:54;;;;;;;10.07;3.47;;;15.10;99.90;;;;;;4936454;28;20194;-64
2022/10/17 01:06:19;;;;;;;9.30;3.58;;;15.10;99.90;;;;;;4971648;28;20042;-64
2022/10/17 01:08:45;;;;;;;10.75;3.67;;;15.00;99.90;;;;;;4950860;29;20042;-64
2022/10/17 01:11:26;;;;;;;12.75;3.85;;;15.20;99.90;;;;;;4958546;28;20035;-64
2022/10/17 01:14:06;;;;;;;13.00;3.80;;;14.50;99.90;;;;;;4971895;28;20038;-64
2022/10/17 01:16:58;;;;;;;6.53;3.03;;;14.80;99.90;;;;;;4970344;28;20134;-63
2022/10/17 01:19:55;;;;;;;8.02;3.47;;;15.40;99.90;;;;;;4953495;28;20051;-64
2022/10/17 01:22:26;;;;;;;;;;;15.40;99.90;;;;;;4951412;28;20086;-65
2022/10/17 01:25:20;;;;;;;6.65;3.45;;;15.40;99.90;;;;;;4954020;28;19980;-64
2022/10/17 01:28:00;;;;;;;13.25;3.53;;;14.90;99.90;;;;;;4971272;28;20049;-64
2022/10/17 01:31:16;;;;;;;9.90;3.92;;;14.70;99.90;;;;;;4954606;28;20075;-64
2022/10/17 01:33:47;;;;;;;12.80;3.97;;;15.40;99.90;;;;;;4923006;28;20053;-63
2022/10/17 01:36:31;;;;;;;9.18;3.30;;;15.30;99.90;;;;;;4971040;28;20039;-64
2022/10/17 01:39:15;;;;;;;9.45;4.20;;;14.60;99.90;;;;;;4971669;28;20039;-64
2022/10/17 01:41:58;;;;;;;8.60;3.50;;;15.40;99.90;;;;;;4964531;28;20049;-64
2022/10/17 01:44:48;;;;;;;12.95;3.97;;;14.60;99.90;;;;;;4954635;28;20043;-64
2022/10/17 01:47:18;;;;;;;9.73;4.10;;;15.30;99.90;;;;;;4943021;29;20505;-63
2022/10/17 01:49:45;;;;;;;11.70;4.15;;;14.70;99.90;;;;;;4968462;28;20078;-64
2022/10/17 01:52:22;;;;;;;9.68;3.97;;;14.40;99.90;;;;;;4938310;28;20043;-64
2022/10/17 01:55:02;;;;;;;10.05;3.80;;;15.00;99.90;;;;;;4971063;28;20063;-64
2022/10/17 01:57:36;;;;;;;11.60;4.03;;;14.20;99.90;;;;;;4957338;28;20412;-64
2022/10/17 02:00:07;;;;;;;11.35;4.47;;;14.30;99.90;;;;;;4975545;28;20039;-64
2022/10/17 02:02:34;;;;;;;12.27;4.45;;;14.90;99.90;;;;;;4976113;28;20064;-64
2022/10/17 02:05:01;;;;;;;17.85;5.00;;;14.20;99.90;;;;;;4957228;28;20053;-64
2022/10/17 02:07:27;;;;;;;16.70;4.10;;;14.40;99.90;;;;;;4974707;28;20059;-64
2022/10/17 02:09:52;;;;;;;7.28;3.63;;;14.70;99.90;;;;;;4975908;28;20066;-64
2022/10/17 02:12:30;;;;;;;13.98;4.70;;;15.00;99.90;;;;;;4975399;28;20046;-64
2022/10/17 02:15:09;;;;;;;11.77;4.93;;;15.00;99.90;;;;;;4974890;28;20372;-64
2022/10/17 02:18:04;;;;;;;11.55;5.65;;;14.90;99.90;;;;;;4954082;28;20043;-64
2022/10/17 02:20:55;;;;;;;11.02;4.82;;;14.20;99.90;;;;;;4942457;28;20046;-64
2022/10/17 02:23:34;;;;;;;7.97;4.57;;;14.40;99.90;;;;;;4975371;28;20047;-64
2022/10/17 02:26:10;;;;;;;10.23;4.63;;;14.40;99.90;;;;;;4974325;28;20053;-64
2022/10/17 02:29:02;;;;;;;;;;;14.00;99.90;;;;;;4975395;28;20500;-64
2022/10/17 02:31:37;;;;;;;10.70;4.05;;;14.00;99.90;;;;;;4954206;28;20004;-64
2022/10/17 02:34:17;;;;;;;13.75;4.65;;;14.40;99.90;;;;;;4969409;28;20030;-64
2022/10/17 02:36:49;;;;;;;10.77;5.03;;;15.00;99.90;;;;;;4941194;28;20039;-64
2022/10/17 02:39:15;;;;;;;10.73;4.97;;;15.00;99.90;;;;;;4957501;28;20086;-64
2022/10/17 02:41:43;;;;;;;6.63;5.13;;;13.90;99.90;;;;;;4975573;28;20089;-64
2022/10/17 02:44:10;;;;;;;15.35;5.93;;;14.50;99.90;;;;;;4975351;28;20578;-64
2022/10/17 02:46:37;;;;;;;11.70;6.10;;;14.00;99.90;;;;;;4953142;29;20049;-64
2022/10/17 02:49:26;;;;;;;10.48;5.70;;;14.00;99.90;;;;;;4972480;28;20031;-64
2022/10/17 02:52:02;;;;;;;9.40;5.53;;;14.10;99.90;;;;;;4953803;29;20105;-64
2022/10/17 02:54:38;;;;;;;12.50;5.57;;;14.10;99.90;;;;;;4956129;28;20509;-64
2022/10/17 02:57:09;;;;;;;8.68;5.93;;;14.10;99.90;;;;;;4973244;28;20043;-64
2022/10/17 02:59:36;;;;;;;16.55;6.38;;;15.20;99.90;;;;;;4957109;28;20430;-64
2022/10/17 03:02:04;;;;;;;10.85;6.82;;;15.20;99.90;;;;;;4957534;28;20050;-64
2022/10/17 03:04:29;;;;;;;14.82;6.22;;;15.20;99.90;;;;;;4957271;28;20053;-64
2022/10/17 03:06:55;;;;;;;11.82;5.75;;;14.20;99.90;;;;;;4973236;28;20035;-64
2022/10/17 03:09:21;;;;;;;12.95;7.22;;;15.10;99.90;;;;;;4953148;29;20083;-64
2022/10/17 03:11:46;;;;;;;22.20;7.38;;;14.30;99.90;;;;;;4939976;28;20047;-64
2022/10/17 03:14:12;;;;;;;12.15;7.53;;;14.70;99.90;;;;;;4974728;28;20054;-64
2022/10/17 03:16:37;;;;;;;18.83;8.43;;;15.20;99.90;;;;;;4973499;28;20070;-64
2022/10/17 03:19:03;;;;;;;17.77;9.20;;;14.60;99.90;;;;;;4949696;29;20381;-64
2022/10/17 03:21:29;;;;;;;20.05;8.30;;;15.20;99.90;;;;;;4941705;29;20114;-64
2022/10/17 03:23:54;;;;;;;10.63;6.97;;;13.90;99.90;;;;;;4954874;28;20452;-64
2022/10/17 03:26:20;;;;;;;9.32;5.88;;;15.10;99.90;;;;;;4953951;28;20081;-64
2022/10/17 03:28:45;;;;;;;14.40;6.75;;;14.90;99.90;;;;;;4953155;29;20086;-64
2022/10/17 03:31:16;;;;;;;12.43;7.00;;;14.40;99.90;;;;;;4952675;29;20050;-64
2022/10/17 03:33:42;;;;;;;12.48;7.63;;;14.00;99.90;;;;;;4942975;28;20039;-64
2022/10/17 03:36:09;;;;;;;15.20;7.70;;;15.10;99.90;;;;;;4952389;28;20501;-64
2022/10/17 03:38:35;;;;;;;12.45;7.75;;;15.00;99.90;;;;;;4954328;28;20583;-64
2022/10/17 03:41:02;;;;;;;10.65;7.47;;;14.70;99.90;;;;;;4954740;28;20160;-63
2022/10/17 03:43:28;;;;;;;13.13;8.38;;;15.30;99.90;;;;;;4954360;28;20035;-64
2022/10/17 03:45:56;;;;;;;11.27;7.95;;;14.00;99.90;;;;;;4952869;28;20031;-64
2022/10/17 03:48:22;;;;;;;16.38;8.48;;;14.10;99.90;;;;;;4954697;28;20042;-64
2022/10/17 03:50:48;;;;;;;10.82;8.40;;;14.10;99.90;;;;;;4954961;29;20405;-64
2022/10/17 03:53:13;;;;;;;17.00;9.98;;;15.30;99.90;;;;;;4954860;29;20039;-64
2022/10/17 03:55:39;;;;;;;15.60;9.43;;;15.20;99.90;;;;;;4953228;29;20098;-64
2022/10/17 03:58:04;;;;;;;13.60;10.85;;;15.60;99.90;;;;;;4944953;29;20062;-64
2022/10/17 04:00:30;;;;;;;20.92;11.85;;;14.80;99.90;;;;;;4952545;29;20043;-64
2022/10/17 04:02:57;;;;;;;15.57;11.75;;;15.80;99.90;;;;;;4952035;29;20404;-64
2022/10/17 04:05:23;;;;;;;16.90;13.15;;;14.80;99.90;;;;;;4952935;29;20118;-64
2022/10/17 04:07:48;;;;;;;16.42;12.00;;;15.90;99.90;;;;;;4953074;29;20456;-64
2022/10/17 04:10:14;;;;;;;11.80;10.05;;;16.10;99.90;;;;;;4953226;29;20043;-64
2022/10/17 04:12:39;;;;;;;11.70;9.57;;;16.10;99.90;;;;;;4951732;29;20100;-64
2022/10/17 04:15:05;;;;;;;13.10;10.88;;;16.10;99.90;;;;;;4952078;29;20058;-64
2022/10/17 04:17:31;;;;;;;14.18;9.38;;;15.90;99.90;;;;;;4951911;28;20051;-64
2022/10/17 04:19:57;;;;;;;19.55;10.43;;;14.70;99.90;;;;;;4952587;29;20122;-64
2022/10/17 04:22:22;;;;;;;14.95;9.88;;;16.10;99.90;;;;;;4951962;29;20039;-64
2022/10/17 04:24:48;;;;;;;16.05;10.68;;;15.40;99.90;;;;;;4952950;29;20048;-64
2022/10/17 04:27:13;;;;;;;16.70;11.18;;;14.90;99.90;;;;;;4952753;29;20039;-64
2022/10/17 04:29:39;;;;;;;14.52;10.82;;;15.40;99.90;;;;;;4952333;29;20118;-64
2022/10/17 04:32:05;;;;;;;21.63;9.73;;;16.20;99.90;;;;;;4952111;29;20071;-64
2022/10/17 04:34:30;;;;;;;16.55;11.35;;;14.90;99.90;;;;;;4954121;29;20055;-64
2022/10/17 04:36:56;;;;;;;16.63;12.65;;;16.80;99.90;;;;;;4945207;29;20377;-64
2022/10/17 04:39:21;;;;;;;16.38;11.90;;;16.00;99.90;;;;;;4936272;29;20043;-64
2022/10/17 04:41:47;;;;;;;18.85;12.70;;;15.10;99.90;;;;;;4952269;29;20058;-64
2022/10/17 04:44:12;;;;;;;18.73;12.23;;;15.10;99.90;;;;;;4952370;29;20040;-64
2022/10/17 04:46:38;;;;;;;17.98;14.70;;;16.20;99.90;;;;;;4952683;29;20071;-64
2022/10/17 04:49:04;;;;;;;18.88;13.88;;;16.00;99.90;;;;;;4935416;29;20039;-64
2022/10/17 04:51:29;;;;;;;21.00;14.73;;;16.40;99.90;;;;;;4944600;29;20055;-64
2022/10/17 04:53:55;;;;;;;16.67;10.93;;;15.40;99.90;;;;;;4952884;29;20524;-64
2022/10/17 04:56:22;;;;;;;15.40;10.45;;;15.50;99.90;;;;;;4942661;29;20043;-64
2022/10/17 04:58:48;;;;;;;16.80;11.27;;;15.50;99.90;;;;;;4951031;29;20129;-64
2022/10/17 05:01:17;;;;;;;18.23;12.60;;;17.10;99.90;;;;;;4952025;29;20074;-64
2022/10/17 05:03:43;;;;;;;15.57;11.50;;;15.30;99.90;;;;;;4947371;29;20367;-64
2022/10/17 05:06:15;;;;;;;16.90;11.50;;;16.10;99.90;;;;;;4952159;28;20035;-64
2022/10/17 05:08:41;;;;;;;12.30;9.50;;;16.60;99.90;;;;;;4936318;29;20043;-64
2022/10/17 05:11:19;;;;;;;13.73;10.20;;;15.90;99.90;;;;;;4951974;29;20047;-64
2022/10/17 05:13:49;;;;;;;16.15;11.60;;;15.70;99.90;;;;;;4949564;29;20047;-65
2022/10/17 05:16:14;;;;;;;17.48;11.02;;;17.10;99.90;;;;;;4948497;29;20457;-64
2022/10/17 05:18:40;;;;;;;12.48;8.43;;;16.00;99.90;;;;;;4951863;29;20063;-65
2022/10/17 05:21:06;;;;;;;17.65;13.32;;;15.50;99.90;;;;;;4951876;29;20047;-64
2022/10/17 05:23:31;;;;;;;18.95;14.02;;;17.00;99.90;;;;;;4951584;29;20413;-64
2022/10/17 05:25:57;;;;;;;19.35;13.07;;;15.60;99.90;;;;;;4951599;28;20035;-64
2022/10/17 05:28:23;;;;;;;20.10;15.13;;;17.40;99.90;;;;;;4942575;29;20047;-64
2022/10/17 05:30:48;;;;;;;20.73;14.10;;;17.30;99.90;;;;;;4943791;29;20050;-64
2022/10/17 05:33:14;;;;;;;19.05;13.20;;;16.20;99.90;;;;;;4951686;29;20461;-64
2022/10/17 05:35:39;;;;;;;20.40;13.23;;;16.40;99.90;;;;;;4944035;29;20044;-64
2022/10/17 05:38:05;;;;;;;20.08;12.82;;;16.40;99.90;;;;;;4950819;29;20412;-65
2022/10/17 05:40:31;;;;;;;22.30;13.45;;;17.00;99.90;;;;;;4947490;29;20126;-64
2022/10/17 05:42:56;;;;;;;18.95;13.65;;;15.50;99.90;;;;;;4937451;29;20043;-65
2022/10/17 05:45:22;;;;;;;15.20;12.20;;;16.70;99.90;;;;;;4941019;29;20394;-64
2022/10/17 05:47:47;;;;;;;17.40;13.50;;;17.10;99.90;;;;;;4942745;29;20130;-64
2022/10/17 05:50:13;;;;;;;15.65;13.25;;;17.20;99.90;;;;;;4940410;29;20118;-64
2022/10/17 05:52:39;;;;;;;17.05;14.23;;;16.90;99.90;;;;;;4951797;28;20179;-65
2022/10/17 05:55:05;;;;;;;20.75;14.55;;;16.90;99.90;;;;;;4948272;29;20134;-65
2022/10/17 05:57:31;;;;;;;17.42;13.40;;;15.50;99.90;;;;;;4948761;29;20446;-65
2022/10/17 05:59:56;;;;;;;20.23;12.40;;;16.60;99.90;;;;;;4937757;29;20171;-64
2022/10/17 06:02:22;;;;;;;20.45;12.60;;;15.70;99.90;;;;;;4952671;29;20461;-65
2022/10/17 06:04:48;;;;;;;16.40;11.85;;;15.90;99.90;;;;;;4932921;29;20052;-64
2022/10/17 06:07:15;;;;;;;15.95;12.30;;;17.20;99.90;;;;;;4938944;29;20051;-65
2022/10/17 06:09:41;;;;;;;20.13;12.25;;;16.20;99.90;;;;;;4941592;29;20216;-65
2022/10/17 06:12:07;;;;;;;16.45;10.88;;;16.10;99.90;;;;;;4941476;29;20043;-64
2022/10/17 06:14:33;;;;;;;19.83;11.63;;;16.30;99.90;;;;;;4945080;29;20216;-64
2022/10/17 06:16:59;;;;;;;25.98;11.48;;;16.50;99.90;;;;;;4945959;29;20187;-64
2022/10/17 06:19:25;;;;;;;15.43;11.20;;;17.80;99.90;;;;;;4949681;28;20245;-65
2022/10/17 06:21:51;;;;;;;17.45;11.43;;;16.10;99.90;;;;;;4950439;28;20515;-64
2022/10/17 06:24:16;;;;;;;15.82;11.68;;;16.60;99.90;;;;;;4968542;28;20520;-64
2022/10/17 06:26:42;;;;;;;14.35;10.88;;;18.00;99.90;;;;;;4942780;28;20039;-64
2022/10/17 06:29:08;;;;;;;15.50;9.45;;;17.50;99.90;;;;;;4943042;28;20054;-64
2022/10/17 06:31:34;;;;;;;15.55;10.60;;;17.30;99.90;;;;;;4951772;28;20050;-65
2022/10/17 06:33:59;;;;;;;13.68;9.20;;;18.30;99.90;;;;;;4969686;28;20047;-64
2022/10/17 06:36:25;;;;;;;14.10;8.93;;;18.20;99.90;;;;;;4952087;28;20043;-65
2022/10/17 06:38:50;;;;;;;16.40;9.60;;;18.00;99.90;;;;;;4948093;28;20047;-64
2022/10/17 06:41:18;;;;;;;11.23;8.80;;;18.10;99.90;;;;;;4971558;28;20031;-64
2022/10/17 06:43:45;;;;;;;15.95;9.68;;;16.80;99.90;;;;;;4972785;28;20047;-65
2022/10/17 06:46:12;;;;;;;12.45;8.15;;;17.10;99.90;;;;;;4952067;28;20051;-65
2022/10/17 06:48:38;;;;;;;15.13;9.20;;;16.70;99.90;;;;;;4934414;28;20039;-64
2022/10/17 06:51:05;;;;;;;12.68;8.98;;;18.30;99.90;;;;;;4953255;28;20632;-65
2022/10/17 06:53:33;;;;;;;15.32;9.63;;;16.60;99.90;;;;;;4972429;28;20097;-65
2022/10/17 06:56:03;;;;;;;18.30;9.32;;;16.80;99.90;;;;;;4938854;28;20043;-67
2022/10/17 06:58:30;;;;;;;15.73;9.65;;;18.00;99.90;;;;;;4957415;28;20057;-65
2022/10/17 07:01:07;;;;;;;12.98;8.50;;;17.60;99.90;;;;;;4969686;28;20492;-65
2022/10/17 07:03:33;;;;;;;15.30;9.30;;;17.20;99.90;;;;;;4949170;28;20043;-65
2022/10/17 07:05:58;;;;;;;15.50;9.15;;;18.10;99.90;;;;;;4950174;28;20069;-65
2022/10/17 07:08:25;;;;;;;15.85;9.75;;;18.00;99.90;;;;;;4950416;28;20046;-65
2022/10/17 07:10:51;;;;;;;11.80;8.68;;;18.70;99.90;;;;;;4969636;28;20045;-65
2022/10/17 07:13:17;;;;;;;10.43;8.68;;;16.80;99.90;;;;;;4953892;28;20042;-65
2022/10/17 07:15:43;;;;;;;10.82;8.43;;;18.40;99.90;;;;;;4965043;28;20079;-65
2022/10/17 07:18:09;;;;;;;17.33;9.88;;;16.80;99.90;;;;;;4932616;28;20077;-65
2022/10/17 07:20:35;;;;;;;11.95;9.05;;;18.00;99.90;;;;;;4972619;28;20087;-65
2022/10/17 07:23:00;;;;;;;16.30;7.82;;;18.70;99.90;;;;;;4967036;28;20121;-65
2022/10/17 07:25:27;;;;;;;14.10;8.05;;;18.90;99.90;;;;;;4955108;28;20129;-66
2022/10/17 07:27:53;;;;;;;10.93;7.80;;;16.90;99.90;;;;;;4956074;28;20094;-66
2022/10/17 07:30:19;;;;;;;16.00;8.10;;;17.30;99.90;;;;;;4970769;28;20039;-66
2022/10/17 07:32:45;;;;;;;13.55;8.70;;;16.90;99.90;;;;;;4947309;28;20042;-66
2022/10/17 07:35:11;;;;;;;10.40;7.72;;;19.00;99.90;;;;;;4956948;28;20083;-66
2022/10/17 07:37:37;;;;;;;18.40;8.10;;;17.00;99.90;;;;;;4955982;28;20069;-66
2022/10/17 07:40:05;;;;;;;7.72;6.63;;;18.00;99.90;;;;;;4950468;28;20042;-66
2022/10/17 07:42:31;;;;;;;11.73;7.38;;;17.00;99.90;;;;;;4954860;28;20113;-66
2022/10/17 07:44:56;;;;;;;18.40;8.98;;;17.10;99.90;;;;;;4950225;28;20489;-65
2022/10/17 07:47:22;;;;;;;15.38;8.75;;;19.00;99.90;;;;;;4956103;28;20045;-66
2022/10/17 07:49:47;;;;;;;13.77;8.23;;;18.80;99.90;;;;;;4955477;28;20121;-66
2022/10/17 07:52:14;;;;;;;9.80;7.45;;;18.00;99.90;;;;;;4940479;28;20471;-66
2022/10/17 07:54:40;;;;;;;13.25;8.70;;;17.30;99.90;;;;;;4953494;28;20408;-66
2022/10/17 07:57:06;;;;;;;12.75;8.02;;;17.50;99.90;;;;;;4948427;28;20047;-66
2022/10/17 07:59:33;;;;;;;12.35;8.32;;;18.10;99.90;;;;;;4951640;28;20391;-66
2022/10/17 08:01:59;;;;;;;21.77;6.68;;;17.80;99.90;;;;;;4953485;28;20043;-66
2022/10/17 08:04:25;;;;;;;10.32;6.97;;;18.80;99.90;;;;;;4939795;28;20078;-66
2022/10/17 08:06:51;;;;;;;11.48;7.65;;;17.60;99.90;;;;;;4956785;28;20066;-67
2022/10/17 08:09:17;;;;;;;11.02;8.15;;;19.40;99.90;;;;;;4960469;28;20117;-67
2022/10/17 08:11:42;;;;;;;10.10;7.38;;;19.30;99.90;;;;;;4973608;28;20038;-67
2022/10/17 08:14:09;;;;;;;13.60;7.78;;;17.80;99.90;;;;;;4955084;28;20035;-67
2022/10/17 08:16:35;;;;;;;12.57;7.95;;;19.40;99.90;;;;;;4954650;28;20078;-67
2022/10/17 08:19:00;;;;;;;15.68;8.35;;;19.00;99.90;;;;;;4954821;28;20152;-67
2022/10/17 08:21:26;;;;;;;9.82;7.63;;;18.50;99.90;;;;;;4952406;29;20058;-67
2022/10/17 08:23:52;;;;;;;13.30;8.57;;;17.90;99.90;;;;;;4939765;28;20039;-67
2022/10/17 08:26:18;;;;;;;10.90;7.28;;;18.90;99.90;;;;;;4951902;28;20113;-67
2022/10/17 08:28:45;;;;;;;11.75;7.40;;;19.50;99.90;;;;;;4954503;28;20042;-67
2022/10/17 08:31:13;;;;;;;9.43;6.63;;;19.10;99.90;;;;;;4955442;28;20053;-67
2022/10/17 08:33:40;;;;;;;13.05;8.00;;;17.40;99.90;;;;;;4953123;28;20130;-67
2022/10/17 08:36:07;;;;;;;14.50;7.57;;;19.20;99.90;;;;;;4949075;28;20050;-66
2022/10/17 08:38:34;;;;;;;12.38;7.43;;;19.50;99.90;;;;;;4952652;28;20074;-67
2022/10/17 08:41:03;;;;;;;16.90;7.82;;;19.40;99.90;;;;;;4933171;28;20042;-67
2022/10/17 08:44:24;;;;;;;11.05;6.28;;;18.60;99.90;;;;;;4955099;28;20057;-67
2022/10/17 08:46:53;;;;;;;12.32;8.18;;;18.50;99.90;;;;;;4859730;29;20388;-67
2022/10/17 08:49:45;;;;;;;11.32;6.65;;;17.70;99.90;;;;;;4967324;28;20058;-67
2022/10/17 08:52:29;;;;;;;10.85;8.60;;;19.50;99.90;;;;;;4954817;28;20043;-66
2022/10/17 08:54:55;;;;;;;18.15;7.95;;;17.20;99.90;;;;;;4954907;28;20051;-66
2022/10/17 08:57:20;;;;;;;11.38;7.20;;;19.40;99.90;;;;;;4954465;28;20137;-66
2022/10/17 08:59:51;;;;;;;10.00;7.22;;;18.40;99.90;;;;;;4946452;28;20076;-67
2022/10/17 09:02:45;;;;;;;13.00;7.32;;;17.50;99.90;;;;;;4935440;28;20405;-67
2022/10/17 09:05:24;;;;;;;12.32;7.63;;;19.20;99.90;;;;;;4941786;28;20059;-67
2022/10/17 09:08:13;;;;;;;12.40;7.30;;;18.90;99.90;;;;;;4948627;28;20061;-67
2022/10/17 09:10:56;;;;;;;13.52;8.57;;;19.20;99.90;;;;;;4952110;28;20443;-67
2022/10/17 09:13:31;;;;;;;12.55;7.43;;;19.20;99.90;;;;;;4953628;28;20054;-67
2022/10/17 09:16:06;;;;;;;13.47;7.97;;;18.00;99.90;;;;;;4954278;28;20172;-67
2022/10/17 09:18:39;;;;;;;10.68;8.07;;;19.30;99.90;;;;;;4950495;28;20440;-67
2022/10/17 09:21:23;;;;;;;13.80;8.30;;;18.10;99.90;;;;;;4951801;28;20444;-67
2022/10/17 09:23:56;;;;;;;14.50;9.18;;;18.30;99.90;;;;;;4949864;28;20515;-67
2022/10/17 09:26:23;;;;;;;19.92;9.45;;;19.20;99.90;;;;;;4951846;28;20038;-68
2022/10/17 09:28:54;;;;;;;14.02;9.10;;;17.80;99.90;;;;;;4949742;28;20034;-67
2022/10/17 09:31:44;;;;;;;15.95;8.52;;;18.40;99.90;;;;;;4965158;28;20618;-68
2022/10/17 09:34:10;;;;;;;16.65;8.23;;;17.40;99.90;;;;;;4946822;28;20047;-68
2022/10/17 09:36:39;;;;;;;11.35;7.95;;;17.10;99.90;;;;;;4934364;28;20420;-68
2022/10/17 09:39:12;;;;;;;17.42;8.55;;;17.00;99.90;;;;;;4932059;28;20045;-68
2022/10/17 09:42:03;;;;;;;14.40;8.40;;;18.20;99.90;;;;;;4932313;28;20085;-70
2022/10/17 09:44:32;;;;;;;15.38;9.88;;;17.60;99.90;;;;;;4950088;28;20059;-69
2022/10/17 09:47:27;;;;;;;12.60;9.13;;;18.90;99.90;;;;;;4949447;28;20034;-69
2022/10/17 09:49:52;;;;;;;14.52;9.80;;;18.90;99.90;;;;;;4951119;28;20039;-69
2022/10/17 09:52:33;;;;;;;17.88;10.55;;;18.10;99.90;;;;;;4951863;28;20046;-69
2022/10/17 09:55:25;;;;;;;16.48;10.73;;;19.20;99.90;;;;;;4950897;28;20043;-69
2022/10/17 09:57:52;;;;;;;22.42;11.43;;;17.30;99.90;;;;;;4948539;28;20053;-69
2022/10/17 10:00:42;;;;;;;20.52;11.90;;;18.80;99.90;;;;;;4951857;28;20038;-68
2022/10/17 10:03:24;;;;;;;16.90;10.10;;;18.00;99.90;;;;;;4951466;28;20034;-67
2022/10/17 10:06:00;;;;;;;15.10;9.55;;;18.30;99.90;;;;;;4952336;28;20437;-69
2022/10/17 10:08:51;;;;;;;18.83;10.48;;;19.20;99.90;;;;;;4931250;28;20054;-69
2022/10/17 10:11:21;;;;;;;18.50;10.10;;;17.70;99.90;;;;;;4950579;28;20039;-69
2022/10/17 10:13:48;;;;;;;15.88;10.25;;;17.70;99.90;;;;;;4931630;28;20480;-69
2022/10/17 10:16:20;;;;;;;13.98;9.82;;;17.90;99.90;;;;;;4950437;28;20429;-69
2022/10/17 10:18:46;;;;;;;19.70;9.73;;;17.70;99.90;;;;;;4950463;28;20059;-69
2022/10/17 10:21:21;;;;;;;22.52;9.52;;;19.10;99.90;;;;;;4952064;28;20061;-69
2022/10/17 10:24:07;;;;;;;18.95;11.70;;;17.40;99.90;;;;;;4954670;28;20492;-69
2022/10/17 10:26:47;;;;;;;17.67;10.57;;;19.00;99.90;;;;;;4954629;28;20054;-70
2022/10/17 10:29:38;;;;;;;22.25;11.55;;;18.40;99.90;;;;;;4957079;28;20799;-69
2022/10/17 10:32:23;;;;;;;19.20;10.70;;;19.40;99.90;;;;;;4949251;28;20059;-69
2022/10/17 10:35:17;;;;;;;18.45;11.00;;;17.30;99.90;;;;;;4954367;28;20172;-69
2022/10/17 10:37:47;;;;;;;19.20;11.43;;;19.10;99.90;;;;;;4940336;28;20201;-70
2022/10/17 10:40:44;;;;;;;18.45;11.45;;;19.80;99.90;;;;;;4951464;28;20046;-70
2022/10/17 10:43:32;;;;;;;15.43;11.18;;;17.70;99.90;;;;;;4932323;28;20057;-70
2022/10/17 10:45:58;;;;;;;18.20;10.35;;;18.60;99.90;;;;;;4951455;28;20074;-69
2022/10/17 10:48:34;;;;;;;20.20;11.07;;;19.00;99.90;;;;;;4954840;28;20039;-69
2022/10/17 10:51:06;;;;;;;13.90;9.27;;;17.80;99.90;;;;;;4950256;28;20050;-69
2022/10/17 10:53:47;;;;;;;13.90;9.20;;;19.50;99.90;;;;;;4934968;28;20039;-69
2022/10/17 10:56:29;;;;;;;17.25;9.00;;;19.50;99.90;;;;;;4953569;28;20577;-70
2022/10/17 10:59:22;;;;;;;16.17;8.88;;;17.90;99.90;;;;;;4932746;28;20035;-70
2022/10/17 11:01:58;;;;;;;17.27;9.23;;;19.90;99.90;;;;;;4934980;28;20050;-69
2022/10/17 11:04:37;;;;;;;15.32;9.25;;;18.10;99.90;;;;;;4953504;28;20050;-69
2022/10/17 11:07:09;;;;;;;13.63;8.98;;;20.40;99.90;;;;;;4946711;28;20041;-69
2022/10/17 11:10:01;;;;;;;14.50;9.57;;;19.70;99.90;;;;;;4953762;28;20070;-70
2022/10/17 11:12:36;;;;;;;18.67;9.75;;;17.90;99.90;;;;;;4952562;28;20046;-70
2022/10/17 11:15:20;;;;;;;15.47;9.90;;;18.20;99.90;;;;;;4963910;28;20129;-70
2022/10/17 11:18:05;;;;;;;20.92;8.65;;;18.60;99.90;;;;;;4966465;28;20133;-69
2022/10/17 11:21:04;;;;;;;11.73;8.07;;;18.00;99.90;;;;;;4951499;28;20049;-69
2022/10/17 11:24:06;;;;;;;11.48;6.68;;;18.20;99.90;;;;;;4953262;28;20085;-70
2022/10/17 11:26:37;;;;;;;14.82;7.28;;;18.40;99.90;;;;;;4953587;28;20046;-69
2022/10/17 11:29:06;;;;;;;13.50;8.20;;;20.20;99.90;;;;;;4936340;28;20045;-69
2022/10/17 11:31:38;;;;;;;14.88;8.65;;;17.70;99.90;;;;;;4952576;28;20053;-69
2022/10/17 11:34:18;;;;;;;16.30;8.48;;;19.70;99.90;;;;;;4955610;28;20047;-69
2022/10/17 11:36:47;;;;;;;17.17;8.68;;;19.90;99.90;;;;;;4950854;28;20039;-70
2022/10/17 11:39:22;;;;;;;15.63;7.60;;;20.40;99.90;;;;;;4934266;28;20046;-69
2022/10/17 11:41:56;;;;;;;14.18;8.02;;;19.90;99.90;;;;;;4952560;28;20042;-69
2022/10/17 11:44:35;;;;;;;15.63;8.38;;;17.40;99.90;;;;;;4948114;28;20049;-69
2022/10/17 11:47:28;;;;;;;15.30;7.97;;;18.50;99.90;;;;;;4937103;28;20129;-69
2022/10/17 11:50:03;;;;;;;13.55;8.30;;;17.30;99.90;;;;;;4948981;28;20161;-68
2022/10/17 11:52:41;;;;;;;14.63;7.38;;;17.60;99.90;;;;;;4968092;28;21086;-67
2022/10/17 11:55:25;;;;;;;12.20;6.25;;;17.60;99.90;;;;;;4951484;28;20069;-68
2022/10/17 11:58:17;;;;;;;18.20;6.85;;;18.30;99.90;;;;;;4954434;28;20511;-67
2022/10/17 12:00:49;;;;;;;11.90;5.70;;;17.40;99.90;;;;;;4950928;28;20215;-68
2022/10/17 12:03:37;;;;;;;16.08;5.70;;;18.90;99.90;;;;;;4954103;28;20559;-68
2022/10/17 12:06:41;;;;;;;16.27;5.63;;;17.30;99.90;;;;;;4949162;28;20042;-68
2022/10/17 12:09:33;;;;;;;17.40;6.40;;;19.70;99.90;;;;;;4930122;28;20056;-68
2022/10/17 12:12:01;;;;;;;16.70;6.15;;;18.90;99.90;;;;;;4952788;28;20043;-68
2022/10/17 12:14:40;;;;;;;12.68;5.15;;;18.70;99.90;;;;;;4949911;28;20078;-68
2022/10/17 12:17:30;;;;;;;14.95;5.05;;;18.20;99.90;;;;;;4950418;28;20567;-68
2022/10/17 12:20:22;;;;;;;12.65;5.03;;;17.20;99.90;;;;;;4952419;28;20039;-68
2022/10/17 12:22:50;;;;;;;10.90;4.90;;;19.20;99.90;;;;;;4952416;28;20034;-68
2022/10/17 12:25:32;;;;;;;19.10;5.55;;;18.10;99.90;;;;;;4954403;28;20051;-67
2022/10/17 12:28:17;;;;;;;13.38;4.63;;;19.90;99.90;;;;;;4955352;28;20449;-68
2022/10/17 12:31:08;;;;;;;13.38;4.70;;;20.00;99.90;;;;;;4953778;28;20034;-68
2022/10/17 12:33:54;;;;;;;12.82;4.15;;;20.30;99.90;;;;;;4952034;28;20049;-68
2022/10/17 12:36:25;;;;;;;12.40;4.38;;;19.30;99.90;;;;;;4951970;28;20058;-68
2022/10/17 12:39:13;;;;;;;12.23;4.70;;;20.00;99.90;;;;;;4949872;28;20068;-69
2022/10/17 12:41:39;;;;;;;13.60;5.00;;;18.20;99.90;;;;;;4950551;28;20042;-68
2022/10/17 12:44:13;;;;;;;12.68;4.50;;;18.00;99.90;;;;;;4938116;28;20035;-68
2022/10/17 12:46:43;;;;;;;12.15;4.22;;;19.70;99.90;;;;;;4950071;28;20043;-68
2022/10/17 12:49:35;;;;;;;11.20;3.95;;;20.20;99.90;;;;;;4953547;28;20472;-67
2022/10/17 12:52:10;;;;;;;9.63;3.60;;;18.00;99.90;;;;;;4951410;28;20046;-68
2022/10/17 12:54:43;;;;;;;8.02;3.03;;;17.70;99.90;;;;;;4946660;28;20074;-67
2022/10/17 12:57:26;;;;;;;11.73;3.80;;;18.30;99.90;;;;;;4938541;28;20049;-67
2022/10/17 12:59:52;;;;;;;8.23;3.42;;;19.80;99.90;;;;;;4952768;28;20046;-67